New Orleans, Louisiana
Traffic Map
Current Weather Conditions
New Orleans, Louisiana
Scattered Clouds
Scattered Clouds
90°
Feels Like: 96°
Wind Chill: 90° Ceiling: Unl
Heat Index: 96° Visibility: 10mi
Dew Point: 71° Wind: 21mph
Humidity: 54% Direction: 170° (S)
Pressure: 30.07in Gusts: 0mph
Raw Report DataKNEW 241853Z 17018KT 10SM SCT037 32/22 A3007 RMK AO2 PK WND 16026/1832 SLP176 T03220217
Traffic Incident Summary
Active as of:
Severity:
Category:
InformationThere was an issue retrieving the traffic information for this location. Please try a different location or try again shortly.
Advertisements
Track Severe Weather on mobile